sensor_id;sensor_type;location;lat;lon;timestamp;P1;durP1;ratioP1;P2;durP2;ratioP2
14665;SDS011;7420;53.574;10.040;2023-02-01T00:00:14;24.45;;;3.65;;
14665;SDS011;7420;53.574;10.040;2023-02-01T00:02:39;15.98;;;4.38;;
14665;SDS011;7420;53.574;10.040;2023-02-01T00:05:09;23.73;;;5.75;;
14665;SDS011;7420;53.574;10.040;2023-02-01T00:07:35;18.38;;;5.57;;
14665;SDS011;7420;53.574;10.040;2023-02-01T00:10:01;20.45;;;4.43;;
14665;SDS011;7420;53.574;10.040;2023-02-01T00:12:28;19.67;;;4.88;;
14665;SDS011;7420;53.574;10.040;2023-02-01T00:14:54;19.95;;;4.65;;
14665;SDS011;7420;53.574;10.040;2023-02-01T00:17:19;22.00;;;5.18;;
14665;SDS011;7420;53.574;10.040;2023-02-01T00:19:45;18.52;;;4.68;;
14665;SDS011;7420;53.574;10.040;2023-02-01T00:22:10;18.02;;;4.35;;
14665;SDS011;7420;53.574;10.040;2023-02-01T00:24:36;16.25;;;4.80;;
14665;SDS011;7420;53.574;10.040;2023-02-01T00:27:01;19.67;;;4.95;;
14665;SDS011;7420;53.574;10.040;2023-02-01T00:29:27;20.52;;;4.55;;
14665;SDS011;7420;53.574;10.040;2023-02-01T00:31:52;23.77;;;4.50;;
14665;SDS011;7420;53.574;10.040;2023-02-01T00:34:18;13.75;;;4.07;;
14665;SDS011;7420;53.574;10.040;2023-02-01T00:36:44;20.95;;;4.70;;
14665;SDS011;7420;53.574;10.040;2023-02-01T00:39:10;24.45;;;4.63;;
14665;SDS011;7420;53.574;10.040;2023-02-01T00:41:36;25.70;;;5.03;;
14665;SDS011;7420;53.574;10.040;2023-02-01T00:44:02;19.33;;;5.32;;
14665;SDS011;7420;53.574;10.040;2023-02-01T00:46:28;18.55;;;4.75;;
14665;SDS011;7420;53.574;10.040;2023-02-01T00:48:54;21.48;;;5.00;;
14665;SDS011;7420;53.574;10.040;2023-02-01T00:51:21;23.48;;;6.03;;
14665;SDS011;7420;53.574;10.040;2023-02-01T00:53:49;25.73;;;5.82;;
14665;SDS011;7420;53.574;10.040;2023-02-01T00:56:15;17.55;;;5.57;;
14665;SDS011;7420;53.574;10.040;2023-02-01T00:58:40;20.90;;;4.60;;
14665;SDS011;7420;53.574;10.040;2023-02-01T01:01:10;18.83;;;5.65;;
14665;SDS011;7420;53.574;10.040;2023-02-01T01:03:39;32.65;;;7.07;;
14665;SDS011;7420;53.574;10.040;2023-02-01T01:06:11;16.90;;;4.72;;
14665;SDS011;7420;53.574;10.040;2023-02-01T01:08:38;23.58;;;6.10;;
14665;SDS011;7420;53.574;10.040;2023-02-01T01:11:15;29.52;;;5.75;;
14665;SDS011;7420;53.574;10.040;2023-02-01T01:13:43;18.05;;;5.43;;
14665;SDS011;7420;53.574;10.040;2023-02-01T01:16:11;20.95;;;4.95;;
14665;SDS011;7420;53.574;10.040;2023-02-01T01:18:36;21.25;;;5.13;;
14665;SDS011;7420;53.574;10.040;2023-02-01T01:21:04;25.42;;;6.38;;
14665;SDS011;7420;53.574;10.040;2023-02-01T01:23:30;24.02;;;5.45;;
14665;SDS011;7420;53.574;10.040;2023-02-01T01:25:56;27.80;;;5.00;;
14665;SDS011;7420;53.574;10.040;2023-02-01T01:28:22;20.88;;;6.10;;
14665;SDS011;7420;53.574;10.040;2023-02-01T01:30:47;24.70;;;5.63;;
14665;SDS011;7420;53.574;10.040;2023-02-01T01:33:12;19.13;;;6.22;;
14665;SDS011;7420;53.574;10.040;2023-02-01T01:35:38;27.10;;;6.30;;
14665;SDS011;7420;53.574;10.040;2023-02-01T01:38:04;25.20;;;7.13;;
14665;SDS011;7420;53.574;10.040;2023-02-01T01:40:29;21.27;;;5.55;;
14665;SDS011;7420;53.574;10.040;2023-02-01T01:42:56;29.02;;;6.05;;
14665;SDS011;7420;53.574;10.040;2023-02-01T01:45:29;25.83;;;6.88;;
14665;SDS011;7420;53.574;10.040;2023-02-01T01:48:01;34.60;;;6.43;;
14665;SDS011;7420;53.574;10.040;2023-02-01T01:50:50;25.33;;;6.47;;
14665;SDS011;7420;53.574;10.040;2023-02-01T01:53:23;30.25;;;5.40;;
14665;SDS011;7420;53.574;10.040;2023-02-01T01:55:52;30.63;;;6.07;;
14665;SDS011;7420;53.574;10.040;2023-02-01T01:58:21;26.73;;;5.95;;
14665;SDS011;7420;53.574;10.040;2023-02-01T02:00:50;21.83;;;6.03;;
14665;SDS011;7420;53.574;10.040;2023-02-01T02:06:02;21.50;;;4.97;;
14665;SDS011;7420;53.574;10.040;2023-02-01T02:08:32;22.50;;;5.50;;
14665;SDS011;7420;53.574;10.040;2023-02-01T02:10:58;23.67;;;5.65;;
14665;SDS011;7420;53.574;10.040;2023-02-01T02:13:31;21.02;;;5.30;;
14665;SDS011;7420;53.574;10.040;2023-02-01T02:21:39;26.98;;;5.60;;
14665;SDS011;7420;53.574;10.040;2023-02-01T02:36:31;24.33;;;5.47;;
14665;SDS011;7420;53.574;10.040;2023-02-01T02:39:13;20.33;;;5.50;;
14665;SDS011;7420;53.574;10.040;2023-02-01T02:44:45;25.25;;;6.53;;
14665;SDS011;7420;53.574;10.040;2023-02-01T02:47:38;24.67;;;5.10;;
14665;SDS011;7420;53.574;10.040;2023-02-01T02:53:21;26.30;;;6.15;;
14665;SDS011;7420;53.574;10.040;2023-02-01T02:56:09;24.00;;;6.95;;
14665;SDS011;7420;53.574;10.040;2023-02-01T02:58:56;20.83;;;5.03;;
14665;SDS011;7420;53.574;10.040;2023-02-01T03:01:41;26.02;;;5.47;;
14665;SDS011;7420;53.574;10.040;2023-02-01T03:04:26;17.55;;;4.97;;
14665;SDS011;7420;53.574;10.040;2023-02-01T03:06:52;26.35;;;6.10;;
14665;SDS011;7420;53.574;10.040;2023-02-01T03:09:20;31.42;;;5.80;;
14665;SDS011;7420;53.574;10.040;2023-02-01T03:11:52;29.05;;;6.95;;
14665;SDS011;7420;53.574;10.040;2023-02-01T03:14:45;25.83;;;5.95;;
14665;SDS011;7420;53.574;10.040;2023-02-01T03:17:15;24.85;;;6.10;;
14665;SDS011;7420;53.574;10.040;2023-02-01T03:19:46;26.95;;;8.30;;
14665;SDS011;7420;53.574;10.040;2023-02-01T03:22:23;18.75;;;6.43;;
14665;SDS011;7420;53.574;10.040;2023-02-01T03:24:55;26.75;;;5.25;;
14665;SDS011;7420;53.574;10.040;2023-02-01T03:27:24;31.70;;;7.43;;
14665;SDS011;7420;53.574;10.040;2023-02-01T03:32:43;22.83;;;6.65;;
14665;SDS011;7420;53.574;10.040;2023-02-01T03:35:30;12.07;;;3.65;;
14665;SDS011;7420;53.574;10.040;2023-02-01T03:38:08;7.90;;;2.45;;
14665;SDS011;7420;53.574;10.040;2023-02-01T03:40:45;3.67;;;3.10;;
14665;SDS011;7420;53.574;10.040;2023-02-01T03:43:14;8.18;;;2.47;;
14665;SDS011;7420;53.574;10.040;2023-02-01T03:45:44;8.27;;;2.90;;
14665;SDS011;7420;53.574;10.040;2023-02-01T03:48:14;11.57;;;3.38;;
14665;SDS011;7420;53.574;10.040;2023-02-01T03:50:47;19.73;;;4.90;;
14665;SDS011;7420;53.574;10.040;2023-02-01T03:53:18;14.07;;;3.25;;
14665;SDS011;7420;53.574;10.040;2023-02-01T03:55:46;18.10;;;4.55;;
14665;SDS011;7420;53.574;10.040;2023-02-01T04:00:52;14.32;;;3.90;;
14665;SDS011;7420;53.574;10.040;2023-02-01T04:03:20;8.52;;;3.50;;
14665;SDS011;7420;53.574;10.040;2023-02-01T04:05:47;22.02;;;5.18;;
14665;SDS011;7420;53.574;10.040;2023-02-01T04:08:15;10.85;;;4.03;;
14665;SDS011;7420;53.574;10.040;2023-02-01T04:10:41;14.85;;;4.53;;
14665;SDS011;7420;53.574;10.040;2023-02-01T04:13:06;16.67;;;5.15;;
14665;SDS011;7420;53.574;10.040;2023-02-01T04:15:32;15.25;;;3.55;;
14665;SDS011;7420;53.574;10.040;2023-02-01T04:17:59;19.05;;;3.90;;
14665;SDS011;7420;53.574;10.040;2023-02-01T04:20:25;16.38;;;4.28;;
14665;SDS011;7420;53.574;10.040;2023-02-01T04:22:50;15.27;;;4.10;;
14665;SDS011;7420;53.574;10.040;2023-02-01T04:25:16;18.17;;;4.53;;
14665;SDS011;7420;53.574;10.040;2023-02-01T04:27:44;19.27;;;4.55;;
14665;SDS011;7420;53.574;10.040;2023-02-01T04:30:10;19.77;;;6.13;;
14665;SDS011;7420;53.574;10.040;2023-02-01T04:32:37;15.98;;;4.25;;
14665;SDS011;7420;53.574;10.040;2023-02-01T04:35:03;14.43;;;4.18;;
14665;SDS011;7420;53.574;10.040;2023-02-01T04:37:28;12.35;;;4.47;;
14665;SDS011;7420;53.574;10.040;2023-02-01T04:39:54;13.43;;;3.08;;
14665;SDS011;7420;53.574;10.040;2023-02-01T04:42:20;15.30;;;4.50;;
14665;SDS011;7420;53.574;10.040;2023-02-01T04:44:45;15.48;;;3.88;;
14665;SDS011;7420;53.574;10.040;2023-02-01T04:47:11;12.82;;;3.28;;
14665;SDS011;7420;53.574;10.040;2023-02-01T04:49:36;10.68;;;3.88;;
14665;SDS011;7420;53.574;10.040;2023-02-01T04:52:02;6.82;;;3.35;;
14665;SDS011;7420;53.574;10.040;2023-02-01T04:54:27;12.05;;;3.70;;
14665;SDS011;7420;53.574;10.040;2023-02-01T04:56:53;9.80;;;2.83;;
14665;SDS011;7420;53.574;10.040;2023-02-01T04:59:18;12.25;;;3.65;;
14665;SDS011;7420;53.574;10.040;2023-02-01T05:01:44;13.23;;;3.10;;
14665;SDS011;7420;53.574;10.040;2023-02-01T05:04:09;6.75;;;3.70;;
14665;SDS011;7420;53.574;10.040;2023-02-01T05:06:35;12.05;;;2.42;;
14665;SDS011;7420;53.574;10.040;2023-02-01T05:09:00;9.07;;;2.97;;
14665;SDS011;7420;53.574;10.040;2023-02-01T05:11:25;8.10;;;2.30;;
14665;SDS011;7420;53.574;10.040;2023-02-01T05:14:09;4.63;;;1.58;;
14665;SDS011;7420;53.574;10.040;2023-02-01T05:16:35;4.85;;;1.80;;
14665;SDS011;7420;53.574;10.040;2023-02-01T05:19:01;2.15;;;1.40;;
14665;SDS011;7420;53.574;10.040;2023-02-01T05:21:26;3.30;;;1.13;;
14665;SDS011;7420;53.574;10.040;2023-02-01T05:23:52;4.70;;;1.75;;
14665;SDS011;7420;53.574;10.040;2023-02-01T05:26:47;3.40;;;1.35;;
14665;SDS011;7420;53.574;10.040;2023-02-01T05:29:14;2.20;;;1.45;;
14665;SDS011;7420;53.574;10.040;2023-02-01T05:31:40;2.38;;;1.45;;
14665;SDS011;7420;53.574;10.040;2023-02-01T05:34:06;4.72;;;1.35;;
14665;SDS011;7420;53.574;10.040;2023-02-01T05:36:32;2.90;;;1.40;;
14665;SDS011;7420;53.574;10.040;2023-02-01T05:38:57;3.95;;;1.63;;
14665;SDS011;7420;53.574;10.040;2023-02-01T05:41:22;2.15;;;1.38;;
14665;SDS011;7420;53.574;10.040;2023-02-01T05:43:49;2.75;;;1.60;;
14665;SDS011;7420;53.574;10.040;2023-02-01T05:46:14;2.85;;;1.25;;
14665;SDS011;7420;53.574;10.040;2023-02-01T05:48:40;3.42;;;1.20;;
14665;SDS011;7420;53.574;10.040;2023-02-01T05:51:05;2.05;;;1.30;;
14665;SDS011;7420;53.574;10.040;2023-02-01T05:53:31;3.05;;;1.30;;
14665;SDS011;7420;53.574;10.040;2023-02-01T05:55:57;2.70;;;2.30;;
14665;SDS011;7420;53.574;10.040;2023-02-01T05:58:22;2.88;;;1.30;;
14665;SDS011;7420;53.574;10.040;2023-02-01T06:00:48;2.40;;;1.35;;
14665;SDS011;7420;53.574;10.040;2023-02-01T06:03:13;2.10;;;1.73;;
14665;SDS011;7420;53.574;10.040;2023-02-01T06:05:38;1.67;;;1.58;;
14665;SDS011;7420;53.574;10.040;2023-02-01T06:08:04;2.20;;;1.60;;
14665;SDS011;7420;53.574;10.040;2023-02-01T06:10:29;2.53;;;1.30;;
14665;SDS011;7420;53.574;10.040;2023-02-01T06:12:55;2.35;;;1.40;;
14665;SDS011;7420;53.574;10.040;2023-02-01T06:15:21;4.05;;;1.70;;
14665;SDS011;7420;53.574;10.040;2023-02-01T06:17:46;2.83;;;1.42;;
14665;SDS011;7420;53.574;10.040;2023-02-01T06:20:15;1.80;;;1.58;;
14665;SDS011;7420;53.574;10.040;2023-02-01T06:22:41;6.20;;;1.83;;
14665;SDS011;7420;53.574;10.040;2023-02-01T06:25:07;6.00;;;1.77;;
14665;SDS011;7420;53.574;10.040;2023-02-01T06:27:34;1.70;;;1.52;;
14665;SDS011;7420;53.574;10.040;2023-02-01T06:30:00;3.25;;;2.28;;
14665;SDS011;7420;53.574;10.040;2023-02-01T06:32:26;6.70;;;2.38;;
14665;SDS011;7420;53.574;10.040;2023-02-01T06:34:51;6.55;;;2.08;;
14665;SDS011;7420;53.574;10.040;2023-02-01T06:37:18;5.20;;;2.42;;
14665;SDS011;7420;53.574;10.040;2023-02-01T06:39:44;8.23;;;1.88;;
14665;SDS011;7420;53.574;10.040;2023-02-01T06:42:09;6.28;;;2.47;;
14665;SDS011;7420;53.574;10.040;2023-02-01T06:44:35;4.13;;;2.20;;
14665;SDS011;7420;53.574;10.040;2023-02-01T06:47:00;7.93;;;2.95;;
14665;SDS011;7420;53.574;10.040;2023-02-01T06:49:26;8.77;;;2.20;;
14665;SDS011;7420;53.574;10.040;2023-02-01T06:51:51;9.18;;;3.38;;
14665;SDS011;7420;53.574;10.040;2023-02-01T06:54:16;5.18;;;2.38;;
14665;SDS011;7420;53.574;10.040;2023-02-01T06:56:42;9.13;;;2.38;;
14665;SDS011;7420;53.574;10.040;2023-02-01T06:59:07;9.75;;;2.88;;
14665;SDS011;7420;53.574;10.040;2023-02-01T07:01:33;11.77;;;2.67;;
14665;SDS011;7420;53.574;10.040;2023-02-01T07:03:59;6.55;;;2.72;;
14665;SDS011;7420;53.574;10.040;2023-02-01T07:06:24;11.52;;;2.50;;
14665;SDS011;7420;53.574;10.040;2023-02-01T07:08:50;16.83;;;3.20;;
14665;SDS011;7420;53.574;10.040;2023-02-01T07:11:16;19.33;;;3.47;;
14665;SDS011;7420;53.574;10.040;2023-02-01T07:13:43;10.85;;;3.53;;
14665;SDS011;7420;53.574;10.040;2023-02-01T07:16:10;10.00;;;3.97;;
14665;SDS011;7420;53.574;10.040;2023-02-01T07:18:37;14.32;;;3.88;;
14665;SDS011;7420;53.574;10.040;2023-02-01T07:21:03;17.15;;;3.85;;
14665;SDS011;7420;53.574;10.040;2023-02-01T07:23:28;16.20;;;4.70;;
14665;SDS011;7420;53.574;10.040;2023-02-01T07:25:54;18.52;;;4.93;;
14665;SDS011;7420;53.574;10.040;2023-02-01T07:28:21;32.17;;;5.82;;
14665;SDS011;7420;53.574;10.040;2023-02-01T07:30:48;20.00;;;4.57;;
14665;SDS011;7420;53.574;10.040;2023-02-01T07:33:24;22.75;;;4.78;;
14665;SDS011;7420;53.574;10.040;2023-02-01T07:35:51;16.77;;;4.05;;
14665;SDS011;7420;53.574;10.040;2023-02-01T07:38:17;17.73;;;4.90;;
14665;SDS011;7420;53.574;10.040;2023-02-01T07:40:43;10.45;;;2.80;;
14665;SDS011;7420;53.574;10.040;2023-02-01T07:43:08;19.63;;;4.88;;
14665;SDS011;7420;53.574;10.040;2023-02-01T07:45:35;13.65;;;3.40;;
14665;SDS011;7420;53.574;10.040;2023-02-01T07:48:01;12.25;;;3.55;;
14665;SDS011;7420;53.574;10.040;2023-02-01T07:50:27;18.08;;;5.22;;
14665;SDS011;7420;53.574;10.040;2023-02-01T07:52:52;19.00;;;4.45;;
14665;SDS011;7420;53.574;10.040;2023-02-01T07:55:18;17.42;;;5.07;;
14665;SDS011;7420;53.574;10.040;2023-02-01T07:57:44;19.42;;;4.85;;
14665;SDS011;7420;53.574;10.040;2023-02-01T08:00:10;31.00;;;5.88;;
14665;SDS011;7420;53.574;10.040;2023-02-01T08:02:57;20.45;;;6.47;;
14665;SDS011;7420;53.574;10.040;2023-02-01T08:05:22;22.20;;;5.30;;
14665;SDS011;7420;53.574;10.040;2023-02-01T08:07:48;21.55;;;5.93;;
14665;SDS011;7420;53.574;10.040;2023-02-01T08:10:15;21.10;;;6.22;;
14665;SDS011;7420;53.574;10.040;2023-02-01T08:12:41;18.52;;;4.35;;
14665;SDS011;7420;53.574;10.040;2023-02-01T08:15:06;20.55;;;4.85;;
14665;SDS011;7420;53.574;10.040;2023-02-01T08:17:32;28.88;;;6.00;;
14665;SDS011;7420;53.574;10.040;2023-02-01T08:19:58;22.80;;;6.90;;
14665;SDS011;7420;53.574;10.040;2023-02-01T08:22:23;30.55;;;7.50;;
14665;SDS011;7420;53.574;10.040;2023-02-01T08:24:49;20.90;;;4.90;;
14665;SDS011;7420;53.574;10.040;2023-02-01T08:27:14;19.98;;;4.78;;
14665;SDS011;7420;53.574;10.040;2023-02-01T08:29:40;15.30;;;4.47;;
14665;SDS011;7420;53.574;10.040;2023-02-01T08:32:05;23.67;;;5.60;;
14665;SDS011;7420;53.574;10.040;2023-02-01T08:34:32;16.50;;;4.15;;
14665;SDS011;7420;53.574;10.040;2023-02-01T08:36:57;22.35;;;5.28;;
14665;SDS011;7420;53.574;10.040;2023-02-01T08:39:23;16.45;;;4.60;;
14665;SDS011;7420;53.574;10.040;2023-02-01T08:41:49;20.35;;;5.00;;
14665;SDS011;7420;53.574;10.040;2023-02-01T08:44:35;14.93;;;3.70;;
14665;SDS011;7420;53.574;10.040;2023-02-01T08:47:00;12.23;;;4.07;;
14665;SDS011;7420;53.574;10.040;2023-02-01T08:49:26;13.35;;;4.13;;
14665;SDS011;7420;53.574;10.040;2023-02-01T08:51:51;21.08;;;5.90;;
14665;SDS011;7420;53.574;10.040;2023-02-01T08:54:17;11.73;;;4.68;;
14665;SDS011;7420;53.574;10.040;2023-02-01T08:56:42;15.88;;;3.92;;
14665;SDS011;7420;53.574;10.040;2023-02-01T08:59:08;16.08;;;4.00;;
14665;SDS011;7420;53.574;10.040;2023-02-01T09:01:33;16.52;;;4.35;;
14665;SDS011;7420;53.574;10.040;2023-02-01T09:03:58;20.17;;;4.35;;
14665;SDS011;7420;53.574;10.040;2023-02-01T09:06:24;19.83;;;4.75;;
14665;SDS011;7420;53.574;10.040;2023-02-01T09:08:49;19.20;;;4.45;;
14665;SDS011;7420;53.574;10.040;2023-02-01T09:11:16;21.15;;;5.72;;
14665;SDS011;7420;53.574;10.040;2023-02-01T09:13:44;20.52;;;6.43;;
14665;SDS011;7420;53.574;10.040;2023-02-01T09:16:10;18.23;;;5.65;;
14665;SDS011;7420;53.574;10.040;2023-02-01T09:18:36;20.88;;;6.07;;
14665;SDS011;7420;53.574;10.040;2023-02-01T09:21:05;15.98;;;4.95;;
14665;SDS011;7420;53.574;10.040;2023-02-01T09:23:32;15.65;;;5.22;;
14665;SDS011;7420;53.574;10.040;2023-02-01T09:25:59;13.30;;;4.28;;
14665;SDS011;7420;53.574;10.040;2023-02-01T09:28:25;19.60;;;5.45;;
14665;SDS011;7420;53.574;10.040;2023-02-01T09:30:54;18.00;;;4.68;;
14665;SDS011;7420;53.574;10.040;2023-02-01T09:33:21;21.52;;;5.50;;
14665;SDS011;7420;53.574;10.040;2023-02-01T09:35:48;21.83;;;4.18;;
14665;SDS011;7420;53.574;10.040;2023-02-01T09:38:14;17.95;;;5.22;;
14665;SDS011;7420;53.574;10.040;2023-02-01T09:40:40;17.90;;;4.22;;
14665;SDS011;7420;53.574;10.040;2023-02-01T09:48:34;19.83;;;4.55;;
14665;SDS011;7420;53.574;10.040;2023-02-01T09:51:04;32.85;;;6.43;;
14665;SDS011;7420;53.574;10.040;2023-02-01T09:53:38;16.95;;;5.70;;
14665;SDS011;7420;53.574;10.040;2023-02-01T09:56:12;11.30;;;4.05;;
14665;SDS011;7420;53.574;10.040;2023-02-01T09:58:44;24.83;;;4.93;;
14665;SDS011;7420;53.574;10.040;2023-02-01T10:01:18;25.67;;;4.55;;
14665;SDS011;7420;53.574;10.040;2023-02-01T10:03:47;14.60;;;4.30;;
14665;SDS011;7420;53.574;10.040;2023-02-01T10:09:09;28.48;;;5.80;;
14665;SDS011;7420;53.574;10.040;2023-02-01T10:14:46;25.15;;;5.32;;
14665;SDS011;7420;53.574;10.040;2023-02-01T10:17:37;15.27;;;3.75;;
14665;SDS011;7420;53.574;10.040;2023-02-01T10:20:12;16.13;;;4.57;;
14665;SDS011;7420;53.574;10.040;2023-02-01T10:25:30;15.15;;;4.25;;
14665;SDS011;7420;53.574;10.040;2023-02-01T10:28:02;10.70;;;4.25;;
14665;SDS011;7420;53.574;10.040;2023-02-01T10:30:37;18.85;;;4.03;;
14665;SDS011;7420;53.574;10.040;2023-02-01T10:33:17;17.00;;;4.90;;
14665;SDS011;7420;53.574;10.040;2023-02-01T10:35:45;15.10;;;3.35;;
14665;SDS011;7420;53.574;10.040;2023-02-01T10:38:27;13.50;;;4.60;;
14665;SDS011;7420;53.574;10.040;2023-02-01T10:40:55;21.50;;;5.30;;
14665;SDS011;7420;53.574;10.040;2023-02-01T10:43:25;25.48;;;5.90;;
14665;SDS011;7420;53.574;10.040;2023-02-01T10:45:50;22.10;;;4.57;;
14665;SDS011;7420;53.574;10.040;2023-02-01T10:48:16;21.42;;;6.22;;
14665;SDS011;7420;53.574;10.040;2023-02-01T10:50:53;14.82;;;4.43;;
14665;SDS011;7420;53.574;10.040;2023-02-01T10:53:31;33.95;;;6.32;;
14665;SDS011;7420;53.574;10.040;2023-02-01T10:56:08;17.42;;;4.70;;
14665;SDS011;7420;53.574;10.040;2023-02-01T10:58:35;15.38;;;3.80;;
14665;SDS011;7420;53.574;10.040;2023-02-01T11:01:23;19.30;;;5.00;;
14665;SDS011;7420;53.574;10.040;2023-02-01T11:03:58;19.30;;;4.75;;
14665;SDS011;7420;53.574;10.040;2023-02-01T11:06:30;17.70;;;4.75;;
14665;SDS011;7420;53.574;10.040;2023-02-01T11:09:09;13.25;;;4.72;;
14665;SDS011;7420;53.574;10.040;2023-02-01T11:16:47;17.38;;;5.50;;
14665;SDS011;7420;53.574;10.040;2023-02-01T11:19:14;16.08;;;4.28;;
14665;SDS011;7420;53.574;10.040;2023-02-01T11:21:41;22.65;;;5.00;;
14665;SDS011;7420;53.574;10.040;2023-02-01T11:24:22;17.27;;;5.65;;
14665;SDS011;7420;53.574;10.040;2023-02-01T11:26:50;14.27;;;4.30;;
14665;SDS011;7420;53.574;10.040;2023-02-01T11:29:18;15.82;;;4.70;;
14665;SDS011;7420;53.574;10.040;2023-02-01T11:31:47;21.08;;;5.53;;
14665;SDS011;7420;53.574;10.040;2023-02-01T11:34:20;29.13;;;6.38;;
14665;SDS011;7420;53.574;10.040;2023-02-01T11:39:24;11.15;;;3.83;;
14665;SDS011;7420;53.574;10.040;2023-02-01T11:42:01;20.20;;;5.10;;
14665;SDS011;7420;53.574;10.040;2023-02-01T11:49:45;11.52;;;3.42;;
14665;SDS011;7420;53.574;10.040;2023-02-01T11:52:21;16.50;;;3.95;;
14665;SDS011;7420;53.574;10.040;2023-02-01T12:09:21;13.20;;;2.53;;
14665;SDS011;7420;53.574;10.040;2023-02-01T12:11:53;13.38;;;3.47;;
14665;SDS011;7420;53.574;10.040;2023-02-01T12:22:45;11.23;;;3.75;;
14665;SDS011;7420;53.574;10.040;2023-02-01T12:28:21;11.38;;;3.00;;
14665;SDS011;7420;53.574;10.040;2023-02-01T12:36:16;7.03;;;2.67;;
14665;SDS011;7420;53.574;10.040;2023-02-01T12:38:52;7.88;;;2.85;;
14665;SDS011;7420;53.574;10.040;2023-02-01T12:41:36;11.57;;;3.30;;
14665;SDS011;7420;53.574;10.040;2023-02-01T12:44:17;4.68;;;2.17;;
14665;SDS011;7420;53.574;10.040;2023-02-01T12:46:56;6.80;;;3.22;;
14665;SDS011;7420;53.574;10.040;2023-02-01T12:50:12;4.55;;;1.73;;
14665;SDS011;7420;53.574;10.040;2023-02-01T12:52:21;7.32;;;1.90;;
14665;SDS011;7420;53.574;10.040;2023-02-01T12:54:55;4.88;;;2.05;;
14665;SDS011;7420;53.574;10.040;2023-02-01T12:57:27;5.15;;;1.67;;
14665;SDS011;7420;53.574;10.040;2023-02-01T13:00:01;3.20;;;1.60;;
14665;SDS011;7420;53.574;10.040;2023-02-01T13:02:42;1.73;;;1.42;;
14665;SDS011;7420;53.574;10.040;2023-02-01T13:05:21;3.92;;;1.73;;
14665;SDS011;7420;53.574;10.040;2023-02-01T13:07:56;4.53;;;1.73;;
14665;SDS011;7420;53.574;10.040;2023-02-01T13:13:19;2.08;;;1.40;;
14665;SDS011;7420;53.574;10.040;2023-02-01T13:18:37;2.72;;;1.58;;
14665;SDS011;7420;53.574;10.040;2023-02-01T13:23:40;1.52;;;1.40;;
14665;SDS011;7420;53.574;10.040;2023-02-01T13:26:07;3.15;;;1.10;;
14665;SDS011;7420;53.574;10.040;2023-02-01T13:43:01;6.13;;;2.50;;
14665;SDS011;7420;53.574;10.040;2023-02-01T13:45:48;2.15;;;1.10;;
14665;SDS011;7420;53.574;10.040;2023-02-01T13:48:26;3.38;;;2.35;;
14665;SDS011;7420;53.574;10.040;2023-02-01T13:51:10;3.13;;;1.40;;
14665;SDS011;7420;53.574;10.040;2023-02-01T13:53:38;2.47;;;1.52;;
14665;SDS011;7420;53.574;10.040;2023-02-01T13:56:14;1.80;;;1.50;;
14665;SDS011;7420;53.574;10.040;2023-02-01T13:58:45;5.40;;;2.45;;
14665;SDS011;7420;53.574;10.040;2023-02-01T14:03:53;2.45;;;1.42;;
14665;SDS011;7420;53.574;10.040;2023-02-01T14:09:14;3.35;;;1.30;;
14665;SDS011;7420;53.574;10.040;2023-02-01T14:11:49;5.63;;;1.90;;
14665;SDS011;7420;53.574;10.040;2023-02-01T14:16:42;4.13;;;1.70;;
14665;SDS011;7420;53.574;10.040;2023-02-01T14:19:20;2.08;;;1.35;;
14665;SDS011;7420;53.574;10.040;2023-02-01T14:21:49;5.25;;;2.00;;
14665;SDS011;7420;53.574;10.040;2023-02-01T14:26:59;4.78;;;1.83;;
14665;SDS011;7420;53.574;10.040;2023-02-01T14:29:30;6.90;;;1.90;;
14665;SDS011;7420;53.574;10.040;2023-02-01T14:32:15;4.65;;;1.88;;
14665;SDS011;7420;53.574;10.040;2023-02-01T14:42:17;4.68;;;2.28;;
14665;SDS011;7420;53.574;10.040;2023-02-01T14:44:51;6.57;;;2.08;;
14665;SDS011;7420;53.574;10.040;2023-02-01T14:52:19;8.60;;;1.83;;
14665;SDS011;7420;53.574;10.040;2023-02-01T14:54:49;10.25;;;2.50;;
14665;SDS011;7420;53.574;10.040;2023-02-01T14:57:19;8.82;;;3.60;;
14665;SDS011;7420;53.574;10.040;2023-02-01T14:59:49;5.20;;;2.40;;
14665;SDS011;7420;53.574;10.040;2023-02-01T15:02:25;8.23;;;2.95;;
14665;SDS011;7420;53.574;10.040;2023-02-01T15:04:55;9.70;;;2.83;;
14665;SDS011;7420;53.574;10.040;2023-02-01T15:07:22;15.27;;;2.78;;
14665;SDS011;7420;53.574;10.040;2023-02-01T15:09:50;11.18;;;2.65;;
14665;SDS011;7420;53.574;10.040;2023-02-01T15:12:19;10.07;;;3.08;;
14665;SDS011;7420;53.574;10.040;2023-02-01T15:17:36;11.43;;;3.00;;
14665;SDS011;7420;53.574;10.040;2023-02-01T15:20:23;8.23;;;2.90;;
14665;SDS011;7420;53.574;10.040;2023-02-01T15:22:55;9.00;;;3.35;;
14665;SDS011;7420;53.574;10.040;2023-02-01T15:25:37;12.48;;;3.35;;
14665;SDS011;7420;53.574;10.040;2023-02-01T15:28:03;14.55;;;3.50;;
14665;SDS011;7420;53.574;10.040;2023-02-01T15:30:32;6.38;;;3.42;;
14665;SDS011;7420;53.574;10.040;2023-02-01T15:33:04;19.45;;;6.53;;
14665;SDS011;7420;53.574;10.040;2023-02-01T15:38:21;12.48;;;3.17;;
14665;SDS011;7420;53.574;10.040;2023-02-01T15:41:06;15.43;;;2.83;;
14665;SDS011;7420;53.574;10.040;2023-02-01T15:43:34;9.05;;;3.08;;
14665;SDS011;7420;53.574;10.040;2023-02-01T15:46:29;13.27;;;3.50;;
14665;SDS011;7420;53.574;10.040;2023-02-01T15:48:57;11.90;;;3.55;;
14665;SDS011;7420;53.574;10.040;2023-02-01T15:51:27;9.50;;;2.95;;
14665;SDS011;7420;53.574;10.040;2023-02-01T15:56:24;10.02;;;3.47;;
14665;SDS011;7420;53.574;10.040;2023-02-01T15:58:54;11.63;;;3.17;;
14665;SDS011;7420;53.574;10.040;2023-02-01T16:01:22;6.28;;;2.97;;
14665;SDS011;7420;53.574;10.040;2023-02-01T16:03:48;13.27;;;3.35;;
14665;SDS011;7420;53.574;10.040;2023-02-01T16:08:52;14.45;;;4.05;;
14665;SDS011;7420;53.574;10.040;2023-02-01T16:11:30;12.48;;;4.55;;
14665;SDS011;7420;53.574;10.040;2023-02-01T16:13:57;15.60;;;4.35;;
14665;SDS011;7420;53.574;10.040;2023-02-01T16:16:24;11.02;;;3.85;;
14665;SDS011;7420;53.574;10.040;2023-02-01T16:18:51;14.23;;;4.50;;
14665;SDS011;7420;53.574;10.040;2023-02-01T16:21:16;13.02;;;3.72;;
14665;SDS011;7420;53.574;10.040;2023-02-01T16:23:42;14.40;;;3.60;;
14665;SDS011;7420;53.574;10.040;2023-02-01T16:26:07;24.67;;;3.92;;
14665;SDS011;7420;53.574;10.040;2023-02-01T16:28:33;17.88;;;3.72;;
14665;SDS011;7420;53.574;10.040;2023-02-01T16:30:59;16.23;;;4.65;;
14665;SDS011;7420;53.574;10.040;2023-02-01T16:33:25;18.92;;;4.20;;
14665;SDS011;7420;53.574;10.040;2023-02-01T16:35:51;18.20;;;4.20;;
14665;SDS011;7420;53.574;10.040;2023-02-01T16:38:18;16.35;;;3.88;;
14665;SDS011;7420;53.574;10.040;2023-02-01T16:40:49;16.52;;;4.55;;
14665;SDS011;7420;53.574;10.040;2023-02-01T16:43:18;19.80;;;5.03;;
14665;SDS011;7420;53.574;10.040;2023-02-01T16:45:46;30.40;;;5.45;;
14665;SDS011;7420;53.574;10.040;2023-02-01T16:48:21;16.60;;;5.97;;
14665;SDS011;7420;53.574;10.040;2023-02-01T16:50:55;19.55;;;4.80;;
14665;SDS011;7420;53.574;10.040;2023-02-01T16:53:23;12.52;;;4.60;;
14665;SDS011;7420;53.574;10.040;2023-02-01T16:55:50;10.10;;;4.90;;
14665;SDS011;7420;53.574;10.040;2023-02-01T16:58:17;16.25;;;5.47;;
14665;SDS011;7420;53.574;10.040;2023-02-01T17:00:46;20.15;;;4.72;;
14665;SDS011;7420;53.574;10.040;2023-02-01T17:03:12;18.50;;;4.68;;
14665;SDS011;7420;53.574;10.040;2023-02-01T17:05:41;17.30;;;5.22;;
14665;SDS011;7420;53.574;10.040;2023-02-01T17:08:11;23.70;;;5.15;;
14665;SDS011;7420;53.574;10.040;2023-02-01T17:10:40;21.15;;;5.53;;
14665;SDS011;7420;53.574;10.040;2023-02-01T17:13:07;25.83;;;7.55;;
14665;SDS011;7420;53.574;10.040;2023-02-01T17:15:37;28.50;;;6.65;;
14665;SDS011;7420;53.574;10.040;2023-02-01T17:18:03;20.33;;;4.78;;